Aeroporto :
LOGIN :

Iscrizione | Disclaimer

   EN    FR    IT 

 










Sommario :    VFR   VFR Marginale   IFR   IFR Intensivo   IFR Molto Intensivo
Visibilità : 
Base nubi : 
>= 8 km
>= 3000ft
5 / 8 km
1000 / 3000 ft
1500m / 5 km
500 / 1000 ft
800 / 1500m
200 / 500 ft
< 800m
< 200 ft
Simboli :   Temporali  Nebbia  Neve Forte  Precipitazioni Forti  Vento > 20 kt
SIGMETs :   Varie  Temporali  Ghiacco  Turbolenza  Onda orograficha  Ceneri Vulcaniche






- Altitudine del aeroporto : 443 ft
- Codice IATA : GNA


UMMG - Grodno

ULTIMO METAR :
  • 220730Z 13009G12MPS 9999 BKN023 BKN100 M01/M06 Q1028 R17/CLRD// NOSIG

METARs OBSOLETI :
  • 220700Z 13009G13MPS 9999 BKN024 BKN100 M01/M06 Q1028 R17/CLRD// NOSIG
  • 220630Z 13009G12MPS 9999 BKN023 BKN100 M01/M05 Q1028 R17/CLRD// NOSIG
  • 220600Z 13009G12MPS 9999 OVC023 M01/M05 Q1028 R17/CLRD// NOSIG
  • 220530Z 13009G12MPS 9999 OVC023 M01/M04 Q1028 R17/CLRD// NOSIG
  • 220500Z 14009G13MPS 9999 OVC023 M01/M04 Q1028 NOSIG

TAF TAF UMMG
Valido dal 22 a 05 ore il 22 a 15 ore UTC


220434Z 2205/2215 13010G15MPS 9999 BKN016
TEMPO 2205/2215 15012G17MPS



MetMap, La meteo Aeronautica in un colpo d'occhio ! - Copyright ORBIFLY Dicembre 2007 - Disclaimer

ORBIFLY MET'MAP TEAM :

Programmazione e sviluppo : Alexandra Zaïnal
Concezione e sviluppo : Baudouin d'Aumeries
Co-Programmazione e sviluppo : Marc-Olivier Méhu
Supporto tecnico e logistico : Manuel Goepfert
Aiuto per la traduzione : Arnaldo La Scala

Contatto : metmap@orbifly.com




FONTI E CREDITI :

   NOAA